Time;durP1;ratioP1;P1;durP2;ratioP2;P2;SDS_P1;SDS_P2;PMS_P1;PMS_P2;Temp;Humidity;BMP_temperature;BMP_pressure;BME280_temperature;BME280_humidity;BME280_pressure;Samples;Min_cycle;Max_cycle;Signal;HPM_P1;HPM_P2
2022/07/06 00:01:21;;;;;;;0.90;0.40;;;15.00;99.90;;;;;;4957472;29;20217;-84
2022/07/06 00:03:47;;;;;;;4.20;0.47;;;14.90;99.90;;;;;;4956215;29;20419;-82
2022/07/06 00:06:12;;;;;;;3.30;0.83;;;14.90;99.90;;;;;;4957324;29;20424;-85
2022/07/06 00:08:39;;;;;;;2.60;0.60;;;14.90;99.90;;;;;;4957267;29;20642;-83
2022/07/06 00:11:05;;;;;;;3.70;0.60;;;15.00;99.90;;;;;;4957144;28;20678;-82
2022/07/06 00:13:30;;;;;;;3.63;0.30;;;15.00;99.90;;;;;;4957379;29;20792;-84
2022/07/06 00:15:56;;;;;;;3.60;0.53;;;15.00;99.90;;;;;;4956286;28;20419;-84
2022/07/06 00:18:21;;;;;;;5.40;0.30;;;15.00;99.90;;;;;;4955777;29;20579;-83
2022/07/06 00:20:47;;;;;;;2.50;0.30;;;15.10;97.20;;;;;;4957182;29;20551;-83
2022/07/06 00:23:13;;;;;;;2.10;0.37;;;15.10;76.60;;;;;;4957189;29;20180;-82
2022/07/06 00:25:38;;;;;;;2.20;0.37;;;15.10;97.20;;;;;;4957042;29;20237;-84
2022/07/06 00:28:04;;;;;;;3.17;1.03;;;15.10;92.70;;;;;;4957152;29;20201;-83
2022/07/06 00:30:29;;;;;;;0.60;0.20;;;15.10;99.90;;;;;;4956654;29;20185;-82
2022/07/06 00:32:55;;;;;;;4.80;2.00;;;15.10;99.90;;;;;;4957125;29;20239;-85
2022/07/06 00:35:21;;;;;;;1.97;0.37;;;15.10;99.90;;;;;;4957029;29;20185;-79
2022/07/06 00:37:46;;;;;;;2.40;0.70;;;15.10;99.90;;;;;;4956887;29;20245;-83
2022/07/06 00:40:12;;;;;;;4.00;0.40;;;15.10;99.90;;;;;;4956732;29;20217;-83
2022/07/06 00:42:42;;;;;;;1.43;0.57;;;15.00;99.90;;;;;;4956751;29;20240;-85
2022/07/06 00:45:08;;;;;;;1.73;0.53;;;15.00;99.90;;;;;;4956403;29;20260;-84
2022/07/06 00:47:34;;;;;;;1.90;0.40;;;15.00;99.90;;;;;;4956747;29;20436;-83
2022/07/06 00:50:14;;;;;;;2.60;0.43;;;14.90;99.90;;;;;;4956608;29;20436;-83
2022/07/06 00:52:41;;;;;;;4.67;0.50;;;14.90;99.90;;;;;;4956706;29;20207;-84
2022/07/06 00:55:07;;;;;;;2.30;0.33;;;14.90;99.90;;;;;;4956565;29;20464;-84
2022/07/06 00:57:34;;;;;;;1.63;0.30;;;14.90;99.90;;;;;;4956551;29;20424;-85
2022/07/06 01:00:00;;;;;;;5.90;1.07;;;14.90;99.90;;;;;;4955887;29;21057;-83
2022/07/06 01:02:26;;;;;;;1.30;0.27;;;14.90;99.90;;;;;;4956484;29;20181;-81
2022/07/06 01:04:51;;;;;;;1.60;0.37;;;14.90;99.90;;;;;;4956320;29;20774;-79
2022/07/06 01:07:17;;;;;;;3.33;0.50;;;14.90;99.90;;;;;;4956179;29;20192;-80
2022/07/06 01:09:43;;;;;;;2.60;0.57;;;14.90;99.90;;;;;;4956084;28;20225;-79
2022/07/06 01:12:09;;;;;;;2.27;0.30;;;14.90;99.90;;;;;;4956233;29;20631;-81
2022/07/06 01:14:36;;;;;;;3.40;0.37;;;14.80;99.90;;;;;;4955895;29;20421;-84
2022/07/06 01:17:02;;;;;;;1.40;0.73;;;14.80;99.90;;;;;;4956233;29;20703;-85
2022/07/06 01:19:27;;;;;;;2.93;0.30;;;14.90;99.90;;;;;;4956069;29;20428;-82
2022/07/06 01:21:53;;;;;;;3.40;0.67;;;14.80;99.90;;;;;;4956142;29;20248;-82
2022/07/06 01:24:18;;;;;;;4.40;0.20;;;14.80;99.90;;;;;;4955954;29;20169;-85
2022/07/06 01:26:44;;;;;;;3.40;0.83;;;14.90;99.90;;;;;;4956049;29;20633;-81
2022/07/06 01:29:10;;;;;;;2.20;0.33;;;14.90;99.90;;;;;;4955529;28;20197;-79
2022/07/06 01:31:45;;;;;;;1.40;0.37;;;14.90;99.90;;;;;;4955815;29;20289;-82
2022/07/06 01:34:11;;;;;;;2.70;0.40;;;14.90;99.90;;;;;;4955917;29;20185;-85
2022/07/06 01:36:36;;;;;;;2.60;0.40;;;14.90;99.90;;;;;;4955663;29;20747;-84
2022/07/06 01:39:02;;;;;;;1.47;0.40;;;14.90;99.90;;;;;;4955540;29;20412;-84
2022/07/06 01:41:27;;;;;;;4.83;1.03;;;14.90;99.90;;;;;;4955618;29;20224;-80
2022/07/06 01:43:53;;;;;;;3.97;0.40;;;14.90;99.90;;;;;;4955266;29;20175;-86
2022/07/06 01:46:19;;;;;;;3.33;0.20;;;14.90;99.90;;;;;;4955701;29;20543;-83
2022/07/06 01:48:45;;;;;;;5.70;0.40;;;14.90;99.90;;;;;;4955624;29;20182;-86
2022/07/06 01:51:11;;;;;;;4.30;0.50;;;14.90;99.90;;;;;;4955600;29;20827;-83
2022/07/06 01:53:37;;;;;;;3.10;0.50;;;14.90;99.90;;;;;;4955538;29;20181;-84
2022/07/06 01:56:03;;;;;;;2.07;0.53;;;14.90;99.90;;;;;;4954402;29;20840;-85
2022/07/06 01:58:29;;;;;;;5.50;0.53;;;14.90;99.90;;;;;;4956321;29;20872;-82
2022/07/06 02:00:54;;;;;;;2.30;0.57;;;14.90;99.90;;;;;;4961339;29;20205;-83
2022/07/06 02:03:20;;;;;;;2.10;0.73;;;14.90;99.90;;;;;;4955453;29;20642;-85
2022/07/06 02:05:45;;;;;;;3.33;1.13;;;14.90;99.90;;;;;;4954119;29;20196;-84
2022/07/06 02:08:11;;;;;;;4.97;0.43;;;14.90;99.90;;;;;;4955300;29;20173;-82
2022/07/06 02:10:36;;;;;;;3.67;0.43;;;14.80;99.90;;;;;;4955091;29;20259;-84
2022/07/06 02:13:02;;;;;;;6.40;0.40;;;14.80;99.90;;;;;;4953949;29;20213;-79
2022/07/06 02:15:27;;;;;;;2.30;0.30;;;14.80;99.90;;;;;;4954884;29;20272;-80
2022/07/06 02:17:53;;;;;;;3.83;0.50;;;14.80;99.90;;;;;;4955159;29;20722;-79
2022/07/06 02:20:18;;;;;;;2.37;0.47;;;14.80;99.90;;;;;;4955043;29;20287;-78
2022/07/06 02:22:44;;;;;;;2.40;0.40;;;14.80;99.90;;;;;;4955068;29;20281;-84
2022/07/06 02:25:10;;;;;;;5.03;0.40;;;14.80;99.90;;;;;;4955061;29;20178;-81
2022/07/06 02:27:35;;;;;;;5.90;0.40;;;14.70;99.90;;;;;;4954962;29;20228;-84
2022/07/06 02:30:01;;;;;;;5.60;0.50;;;14.70;99.90;;;;;;4954755;29;20174;-84
2022/07/06 02:32:26;;;;;;;2.77;0.53;;;14.70;99.90;;;;;;4954891;29;20173;-84
2022/07/06 02:34:52;;;;;;;4.40;0.63;;;14.70;99.90;;;;;;4955023;29;20188;-83
2022/07/06 02:37:18;;;;;;;1.90;0.53;;;14.70;99.90;;;;;;4953695;29;20271;-85
2022/07/06 02:39:43;;;;;;;1.90;0.30;;;14.70;99.90;;;;;;4954346;28;20227;-82
2022/07/06 02:42:09;;;;;;;3.47;0.60;;;14.70;99.90;;;;;;4954950;29;20655;-83
2022/07/06 02:44:35;;;;;;;2.20;0.40;;;14.80;99.90;;;;;;4954371;29;20173;-84
2022/07/06 02:47:00;;;;;;;3.70;0.90;;;14.70;99.90;;;;;;4954775;29;20181;-82
2022/07/06 02:49:26;;;;;;;4.23;0.60;;;14.70;99.90;;;;;;4954803;29;20172;-84
2022/07/06 02:51:51;;;;;;;5.50;1.30;;;14.70;99.90;;;;;;4954825;29;20212;-84
2022/07/06 02:54:17;;;;;;;5.03;1.23;;;14.70;99.90;;;;;;4954825;29;20260;-84
2022/07/06 02:56:42;;;;;;;2.00;0.60;;;14.70;99.90;;;;;;4954863;29;20621;-84
2022/07/06 02:59:08;;;;;;;3.43;0.40;;;14.70;99.90;;;;;;4954276;29;20198;-82
2022/07/06 03:01:33;;;;;;;4.87;0.57;;;14.70;99.90;;;;;;4954636;29;20205;-84
2022/07/06 03:03:58;;;;;;;6.50;0.70;;;14.70;99.90;;;;;;4954676;29;20582;-83
2022/07/06 03:06:24;;;;;;;4.20;0.60;;;14.70;99.90;;;;;;4954627;29;20181;-84
2022/07/06 03:08:49;;;;;;;1.80;0.40;;;14.70;99.90;;;;;;4954395;29;20260;-83
2022/07/06 03:11:15;;;;;;;5.93;0.50;;;14.70;99.90;;;;;;4954686;29;20240;-78
2022/07/06 03:13:40;;;;;;;3.90;1.47;;;14.70;99.90;;;;;;4954277;29;20169;-79
2022/07/06 03:16:06;;;;;;;4.80;0.97;;;14.70;99.90;;;;;;4954476;29;20654;-78
2022/07/06 03:18:31;;;;;;;4.43;0.70;;;14.70;99.90;;;;;;4954419;29;20194;-78
2022/07/06 03:20:57;;;;;;;5.53;0.70;;;14.70;99.90;;;;;;4954433;29;20227;-78
2022/07/06 03:23:22;;;;;;;5.00;0.83;;;14.70;99.90;;;;;;4954466;29;20256;-79
2022/07/06 03:25:48;;;;;;;8.00;1.50;;;14.70;99.90;;;;;;4954487;29;20174;-79
2022/07/06 03:28:13;;;;;;;6.23;1.23;;;14.70;99.90;;;;;;4954128;29;20181;-78
2022/07/06 03:30:39;;;;;;;3.50;0.70;;;14.70;99.90;;;;;;4954389;29;20670;-82
2022/07/06 03:33:04;;;;;;;4.37;0.83;;;14.70;99.90;;;;;;4954394;29;20176;-78
2022/07/06 03:35:30;;;;;;;3.97;0.93;;;14.60;99.90;;;;;;4953135;29;20507;-82
2022/07/06 03:37:55;;;;;;;2.23;0.50;;;14.60;99.90;;;;;;4954368;29;20177;-82
2022/07/06 03:40:21;;;;;;;3.33;0.43;;;14.60;99.90;;;;;;4954305;29;20670;-80
2022/07/06 03:42:46;;;;;;;4.30;0.57;;;14.60;99.90;;;;;;4954384;29;20174;-82
2022/07/06 03:45:12;;;;;;;1.90;0.40;;;14.60;99.90;;;;;;4953917;29;20654;-82
2022/07/06 03:47:37;;;;;;;4.97;0.70;;;14.60;99.90;;;;;;4954262;29;20184;-81
2022/07/06 03:50:03;;;;;;;3.70;0.50;;;14.60;99.90;;;;;;4954188;29;20675;-81
2022/07/06 03:52:28;;;;;;;4.20;1.00;;;14.60;99.90;;;;;;4956432;28;20181;-84
2022/07/06 03:54:55;;;;;;;4.73;0.90;;;14.70;99.90;;;;;;4957686;29;20218;-79
2022/07/06 03:57:21;;;;;;;4.80;0.50;;;14.60;99.90;;;;;;4957690;29;20177;-83
2022/07/06 03:59:47;;;;;;;0.97;0.30;;;14.60;99.90;;;;;;4957148;29;20547;-83
2022/07/06 04:02:12;;;;;;;4.13;0.50;;;14.60;99.90;;;;;;4957428;29;20178;-78
2022/07/06 04:04:38;;;;;;;1.03;0.27;;;14.70;99.90;;;;;;4957581;29;20184;-79
2022/07/06 04:07:03;;;;;;;2.13;0.43;;;14.60;99.90;;;;;;4957384;29;20172;-79
2022/07/06 04:09:29;;;;;;;4.30;1.07;;;14.70;99.90;;;;;;4957321;28;20263;-78
2022/07/06 04:11:54;;;;;;;2.10;0.40;;;14.70;99.90;;;;;;4957411;29;20169;-80
2022/07/06 04:14:20;;;;;;;1.73;0.30;;;14.70;99.90;;;;;;4955930;29;20172;-80
2022/07/06 04:16:45;;;;;;;3.97;1.07;;;14.70;99.90;;;;;;4957291;29;20169;-79
2022/07/06 04:19:11;;;;;;;2.23;0.30;;;14.80;99.90;;;;;;4956021;29;20187;-78
2022/07/06 04:21:36;;;;;;;1.57;0.70;;;14.80;99.90;;;;;;4957196;29;20352;-78
2022/07/06 04:24:02;;;;;;;3.50;0.37;;;14.80;99.90;;;;;;4957173;29;20223;-79
2022/07/06 04:26:28;;;;;;;3.27;0.70;;;14.80;99.90;;;;;;4955858;29;20550;-77
2022/07/06 04:28:53;;;;;;;2.47;0.43;;;14.80;99.90;;;;;;4956787;29;20417;-81
2022/07/06 04:31:19;;;;;;;2.10;0.20;;;14.80;99.90;;;;;;4956988;29;20177;-78
2022/07/06 04:33:44;;;;;;;4.20;0.20;;;14.80;99.90;;;;;;4957065;29;20269;-78
2022/07/06 04:36:10;;;;;;;3.50;0.80;;;14.60;99.90;;;;;;4956794;29;20213;-78
2022/07/06 04:38:36;;;;;;;3.50;0.40;;;14.50;99.90;;;;;;4956845;29;20602;-80
2022/07/06 04:41:02;;;;;;;7.23;0.30;;;14.50;99.90;;;;;;4956843;29;20507;-78
2022/07/06 04:43:28;;;;;;;4.20;0.60;;;14.60;99.90;;;;;;4956471;29;20201;-79
2022/07/06 04:45:53;;;;;;;5.10;0.57;;;14.60;99.90;;;;;;4956933;29;20459;-79
2022/07/06 04:48:18;;;;;;;4.80;0.40;;;14.70;99.90;;;;;;4956718;29;20174;-79
2022/07/06 04:50:44;;;;;;;3.43;1.00;;;14.70;99.90;;;;;;4956560;29;20184;-82
2022/07/06 04:53:10;;;;;;;2.93;0.30;;;14.80;99.90;;;;;;4956583;29;20175;-83
2022/07/06 04:55:35;;;;;;;3.70;0.43;;;14.80;99.90;;;;;;4956515;29;20671;-85
2022/07/06 04:58:01;;;;;;;1.80;0.50;;;14.90;99.90;;;;;;4956112;29;20184;-85
2022/07/06 05:00:27;;;;;;;6.57;1.03;;;15.00;99.90;;;;;;4956344;29;20213;-83
2022/07/06 05:02:52;;;;;;;3.10;0.30;;;14.90;99.90;;;;;;4956046;28;20260;-84
2022/07/06 05:05:18;;;;;;;3.13;0.50;;;15.00;99.90;;;;;;4956309;29;20508;-84
2022/07/06 05:07:43;;;;;;;2.37;0.30;;;15.10;99.90;;;;;;4956289;29;20177;-84
2022/07/06 05:10:10;;;;;;;1.57;0.30;;;15.10;99.90;;;;;;4956176;29;20225;-82
2022/07/06 05:12:36;;;;;;;3.30;0.60;;;15.10;99.90;;;;;;4956313;29;20179;-85
2022/07/06 05:15:02;;;;;;;1.37;0.40;;;15.10;99.90;;;;;;4955911;29;20977;-83
2022/07/06 05:17:27;;;;;;;4.07;0.83;;;15.10;99.90;;;;;;4956124;29;20189;-83
2022/07/06 05:19:53;;;;;;;4.87;0.57;;;15.20;99.90;;;;;;4956026;29;20464;-82
2022/07/06 05:22:19;;;;;;;2.77;0.40;;;15.20;99.90;;;;;;4956031;29;20562;-81
2022/07/06 05:24:44;;;;;;;1.80;0.30;;;15.30;99.90;;;;;;4956033;29;20414;-81
2022/07/06 05:27:10;;;;;;;2.20;0.30;;;15.30;99.90;;;;;;4955969;29;20182;-81
2022/07/06 05:29:35;;;;;;;3.30;0.50;;;15.30;99.90;;;;;;4955548;29;20181;-82
2022/07/06 05:32:01;;;;;;;2.13;0.50;;;15.30;99.90;;;;;;4955997;29;20185;-82
2022/07/06 05:34:27;;;;;;;2.60;0.20;;;15.20;99.90;;;;;;4955870;29;20633;-81
2022/07/06 05:36:53;;;;;;;5.47;0.80;;;15.30;99.90;;;;;;4955819;29;20513;-84
2022/07/06 05:39:20;;;;;;;2.67;0.40;;;15.40;99.90;;;;;;4955780;29;20173;-83
2022/07/06 05:41:46;;;;;;;6.23;0.57;;;15.40;99.90;;;;;;4955479;29;20704;-84
2022/07/06 05:44:12;;;;;;;6.10;0.63;;;15.40;99.90;;;;;;4955154;29;20510;-80
2022/07/06 05:46:37;;;;;;;4.37;1.20;;;15.40;96.70;;;;;;4955607;29;20253;-83
2022/07/06 05:51:47;;;;;;;2.20;0.40;;;15.40;92.30;;;;;;4954648;29;20184;-81
2022/07/06 05:54:12;;;;;;;2.20;0.50;;;15.40;36.90;;;;;;4954352;29;20430;-78
2022/07/06 05:56:38;;;;;;;2.53;0.40;;;15.50;25.00;;;;;;4955445;29;20224;-80
2022/07/06 05:59:03;;;;;;;2.17;0.20;;;15.60;1.00;;;;;;4955007;29;20257;-79
2022/07/06 06:01:29;;;;;;;5.00;0.40;;;15.90;1.00;;;;;;4955378;29;20302;-79
2022/07/06 06:03:54;;;;;;;4.73;1.23;;;15.90;1.00;;;;;;4955278;29;20175;-78
2022/07/06 06:06:20;;;;;;;7.60;0.53;;;15.80;1.00;;;;;;4955345;29;20249;-83
2022/07/06 06:08:45;;;;;;;3.80;0.50;;;15.90;1.00;;;;;;4954998;29;20709;-84
2022/07/06 06:11:11;;;;;;;3.10;0.30;;;16.10;1.00;;;;;;4955255;29;20305;-83
2022/07/06 06:13:36;;;;;;;2.27;0.43;;;16.10;1.00;;;;;;4954619;28;20178;-83
2022/07/06 06:16:02;;;;;;;1.90;0.23;;;16.20;1.00;;;;;;4954693;29;20172;-84
2022/07/06 06:18:27;;;;;;;1.20;0.20;;;16.10;1.00;;;;;;4955045;29;20176;-78
2022/07/06 06:20:53;;;;;;;1.20;0.30;;;16.20;1.00;;;;;;4955162;29;20708;-78
2022/07/06 06:23:18;;;;;;;2.63;0.67;;;16.30;1.00;;;;;;4955110;29;20263;-79
2022/07/06 06:25:44;;;;;;;3.37;0.43;;;16.30;99.90;;;;;;4955042;29;20175;-79
2022/07/06 06:28:10;;;;;;;6.47;0.77;;;16.30;1.00;;;;;;4954755;29;20176;-80
2022/07/06 06:30:37;;;;;;;1.80;0.20;;;16.30;1.00;;;;;;4954791;29;20171;-83
2022/07/06 06:33:14;;;;;;;2.37;0.47;;;16.20;1.00;;;;;;4954885;29;21032;-80
2022/07/06 06:35:50;;;;;;;2.97;0.40;;;16.10;1.00;;;;;;4955008;29;20418;-79
2022/07/06 06:38:17;;;;;;;7.60;0.70;;;16.10;1.00;;;;;;4964656;28;20415;-82
2022/07/06 06:40:43;;;;;;;2.60;0.50;;;16.10;1.00;;;;;;4972786;28;20482;-80
2022/07/06 06:43:09;;;;;;;2.77;0.40;;;15.90;1.00;;;;;;4973878;28;20424;-82
2022/07/06 06:45:35;;;;;;;5.27;0.33;;;15.60;99.90;;;;;;4974188;28;20173;-78
2022/07/06 06:48:01;;;;;;;1.83;0.93;;;15.30;99.90;;;;;;4973848;28;21048;-81
2022/07/06 06:50:27;;;;;;;3.03;0.40;;;15.10;99.90;;;;;;4974046;28;20386;-82
2022/07/06 06:52:52;;;;;;;2.60;0.33;;;15.10;99.90;;;;;;4973931;28;20188;-78
2022/07/06 06:55:18;;;;;;;1.70;0.50;;;15.10;99.90;;;;;;4974187;28;20515;-79
2022/07/06 06:57:44;;;;;;;5.60;0.40;;;15.10;99.90;;;;;;4973589;28;20196;-79
2022/07/06 07:00:11;;;;;;;2.60;0.33;;;15.30;99.90;;;;;;4973771;28;20223;-81
2022/07/06 07:02:38;;;;;;;3.50;0.60;;;15.40;99.90;;;;;;4973880;28;20424;-78
2022/07/06 07:05:04;;;;;;;1.40;0.40;;;15.60;99.90;;;;;;4973802;28;20422;-78
2022/07/06 07:07:30;;;;;;;3.80;0.40;;;15.80;99.90;;;;;;4973849;28;20422;-78
2022/07/06 07:09:55;;;;;;;2.33;0.57;;;16.00;99.90;;;;;;4973622;28;20469;-78
2022/07/06 07:12:21;;;;;;;4.87;0.30;;;16.10;99.90;;;;;;4973832;28;20182;-78
2022/07/06 07:14:47;;;;;;;2.30;0.40;;;16.20;99.90;;;;;;4973468;28;20175;-78
2022/07/06 07:17:15;;;;;;;3.80;0.47;;;16.50;32.60;;;;;;4973699;28;20187;-78
2022/07/06 07:19:44;;;;;;;3.40;0.73;;;16.50;34.40;;;;;;4973449;28;20425;-78
2022/07/06 07:22:09;;;;;;;1.73;0.20;;;16.70;7.40;;;;;;4973854;28;20427;-78
2022/07/06 07:24:35;;;;;;;3.30;0.40;;;16.70;1.00;;;;;;4973699;28;20430;-78
2022/07/06 07:27:01;;;;;;;2.73;0.20;;;16.80;1.00;;;;;;4976815;28;20189;-78
2022/07/06 07:29:26;;;;;;;1.27;0.40;;;16.60;1.00;;;;;;4977359;28;20186;-78
2022/07/06 07:31:52;;;;;;;5.33;0.80;;;16.60;23.40;;;;;;4977380;28;20204;-79
2022/07/06 07:34:18;;;;;;;2.70;0.33;;;16.50;57.90;;;;;;4977385;28;20188;-79
2022/07/06 07:36:43;;;;;;;2.20;0.43;;;16.30;83.50;;;;;;4977297;28;20230;-78
2022/07/06 07:39:09;;;;;;;2.60;0.40;;;16.20;95.80;;;;;;4977337;28;20517;-77
2022/07/06 07:41:34;;;;;;;3.00;0.20;;;16.20;17.00;;;;;;4977257;28;20292;-79
2022/07/06 07:44:00;;;;;;;5.30;0.20;;;16.40;1.00;;;;;;4976810;28;20213;-78
2022/07/06 07:46:25;;;;;;;1.00;0.33;;;16.70;1.00;;;;;;4977232;28;20256;-78
2022/07/06 07:48:51;;;;;;;3.63;0.47;;;16.90;1.00;;;;;;4977109;28;20182;-80
2022/07/06 07:51:16;;;;;;;2.50;0.30;;;16.90;1.00;;;;;;4977110;28;20179;-78
2022/07/06 07:53:42;;;;;;;4.50;0.30;;;16.80;1.00;;;;;;4977035;28;20211;-78
2022/07/06 07:56:07;;;;;;;1.60;0.30;;;16.60;1.00;;;;;;4976997;28;20212;-80
2022/07/06 07:58:33;;;;;;;2.20;0.50;;;16.30;1.00;;;;;;4976606;28;20174;-79
2022/07/06 08:00:59;;;;;;;4.30;0.43;;;16.20;1.00;;;;;;4976897;28;20572;-79
2022/07/06 08:03:24;;;;;;;1.63;0.20;;;15.80;97.20;;;;;;4975528;28;20186;-78
2022/07/06 08:05:50;;;;;;;1.67;0.30;;;15.50;99.90;;;;;;4976725;28;20422;-78
2022/07/06 08:08:16;;;;;;;5.30;0.20;;;15.30;99.90;;;;;;4975481;28;20171;-78
2022/07/06 08:10:41;;;;;;;2.73;0.40;;;15.10;99.90;;;;;;4976594;28;20217;-78
2022/07/06 08:13:07;;;;;;;2.23;0.50;;;15.10;99.90;;;;;;4975138;28;20173;-79
2022/07/06 08:15:33;;;;;;;5.27;0.60;;;15.10;99.90;;;;;;4976599;28;20579;-79
2022/07/06 08:17:59;;;;;;;2.90;0.50;;;15.10;99.90;;;;;;4976522;28;20205;-78
2022/07/06 08:20:25;;;;;;;1.67;0.37;;;15.10;99.90;;;;;;4976434;28;20476;-78
2022/07/06 08:22:50;;;;;;;4.10;0.20;;;15.20;99.90;;;;;;4976521;28;20177;-78
2022/07/06 08:25:16;;;;;;;2.37;0.30;;;15.40;99.90;;;;;;4976461;28;20189;-78
2022/07/06 08:27:42;;;;;;;1.60;0.30;;;15.50;99.90;;;;;;4974812;28;20182;-78
2022/07/06 08:30:09;;;;;;;3.80;0.67;;;15.60;99.90;;;;;;4976342;28;20944;-78
2022/07/06 08:32:39;;;;;;;4.00;0.40;;;15.50;99.90;;;;;;4976152;28;20231;-78
2022/07/06 08:35:05;;;;;;;1.60;0.30;;;15.50;99.90;;;;;;4976134;28;20516;-78
2022/07/06 08:37:31;;;;;;;2.63;0.30;;;15.40;99.90;;;;;;4975499;28;20557;-78
2022/07/06 08:39:56;;;;;;;1.70;0.20;;;15.30;99.90;;;;;;4976201;28;20209;-78
2022/07/06 08:42:26;;;;;;;2.07;0.40;;;15.20;99.90;;;;;;4975944;28;20177;-78
2022/07/06 08:44:53;;;;;;;3.33;0.30;;;15.10;99.90;;;;;;4976020;28;20183;-78
2022/07/06 08:47:19;;;;;;;1.53;0.30;;;15.10;99.90;;;;;;4976038;28;20757;-78
2022/07/06 08:49:46;;;;;;;3.50;0.30;;;15.10;99.90;;;;;;4976068;28;20766;-77
2022/07/06 08:52:12;;;;;;;3.23;0.30;;;15.00;99.90;;;;;;4976056;28;20409;-77
2022/07/06 08:54:38;;;;;;;5.20;0.60;;;14.90;99.90;;;;;;4975954;28;20427;-77
2022/07/06 08:57:05;;;;;;;1.70;0.30;;;14.80;99.90;;;;;;4975834;28;20441;-78
2022/07/06 08:59:34;;;;;;;5.70;0.73;;;14.70;99.90;;;;;;4975319;28;20868;-78
2022/07/06 09:02:00;;;;;;;3.73;0.20;;;14.50;99.90;;;;;;4975860;28;20425;-78
2022/07/06 09:04:26;;;;;;;1.50;0.23;;;14.50;99.90;;;;;;4974452;28;20801;-78
2022/07/06 09:06:54;;;;;;;1.67;0.60;;;14.50;99.90;;;;;;4975675;28;20825;-78
2022/07/06 09:09:24;;;;;;;1.57;0.50;;;14.70;99.90;;;;;;4975453;28;20280;-78
2022/07/06 09:11:50;;;;;;;1.60;0.20;;;14.70;99.90;;;;;;4975477;28;20788;-78
2022/07/06 09:14:16;;;;;;;2.87;0.57;;;14.70;99.90;;;;;;4975186;28;20420;-78
2022/07/06 09:16:42;;;;;;;0.87;0.30;;;14.90;99.90;;;;;;4975517;28;20424;-78
2022/07/06 09:19:15;;;;;;;1.57;0.30;;;15.10;99.90;;;;;;4975378;28;20461;-78
2022/07/06 09:21:41;;;;;;;3.63;0.30;;;15.40;99.90;;;;;;4974849;28;20476;-78
2022/07/06 09:24:12;;;;;;;2.30;0.30;;;15.90;99.90;;;;;;4975395;28;20437;-78
2022/07/06 09:26:39;;;;;;;1.23;0.30;;;16.20;99.90;;;;;;4975412;28;20793;-78
2022/07/06 09:29:07;;;;;;;1.90;0.20;;;16.30;99.90;;;;;;4962711;28;20427;-78
2022/07/06 09:31:32;;;;;;;2.93;0.60;;;16.30;99.90;;;;;;4966360;28;20427;-78
2022/07/06 09:34:05;;;;;;;1.00;0.20;;;16.40;99.90;;;;;;4972540;28;20435;-85
2022/07/06 09:36:49;;;;;;;1.73;0.30;;;16.60;99.90;;;;;;4964933;28;20623;-80
2022/07/06 09:39:28;;;;;;;2.97;0.30;;;16.70;99.90;;;;;;4964610;28;20562;-81
2022/07/06 09:41:59;;;;;;;0.83;0.20;;;16.70;99.90;;;;;;4963505;28;20473;-84
2022/07/06 09:44:30;;;;;;;1.43;0.20;;;16.60;99.90;;;;;;4962526;28;20420;-79
2022/07/06 09:46:58;;;;;;;0.80;0.23;;;16.70;99.90;;;;;;4958078;28;20942;-79
2022/07/06 09:49:31;;;;;;;1.53;0.40;;;16.80;99.90;;;;;;4975746;28;20431;-83
2022/07/06 09:51:58;;;;;;;0.73;0.20;;;16.60;79.80;;;;;;4955647;29;20856;-81
2022/07/06 09:54:24;;;;;;;1.40;0.20;;;16.60;99.90;;;;;;4955444;29;20436;-79
2022/07/06 09:56:51;;;;;;;1.70;0.30;;;16.80;99.90;;;;;;4954642;29;20420;-78
2022/07/06 09:59:27;;;;;;;1.00;0.60;;;17.20;99.90;;;;;;4953896;29;20427;-78
2022/07/06 10:01:55;;;;;;;1.77;0.20;;;17.40;5.30;;;;;;4953393;29;20486;-78
2022/07/06 10:04:22;;;;;;;1.00;0.27;;;18.10;43.90;;;;;;4960169;28;20426;-78
2022/07/06 10:06:48;;;;;;;1.73;0.47;;;18.30;1.00;;;;;;4964916;28;20507;-79
2022/07/06 10:09:14;;;;;;;2.90;0.50;;;18.30;99.90;;;;;;4971994;28;20554;-79
2022/07/06 10:11:56;;;;;;;2.20;0.30;;;18.30;1.00;;;;;;4973796;28;20470;-80
2022/07/06 10:14:23;;;;;;;3.73;0.97;;;18.10;1.00;;;;;;4974094;28;20415;-80
2022/07/06 10:16:49;;;;;;;3.07;0.30;;;17.90;1.00;;;;;;4974647;28;20415;-80
2022/07/06 10:19:16;;;;;;;1.67;0.47;;;17.60;1.00;;;;;;4973329;28;20489;-79
2022/07/06 10:21:43;;;;;;;2.40;0.30;;;17.40;1.00;;;;;;4974541;28;20211;-80
2022/07/06 10:24:09;;;;;;;2.07;0.37;;;18.40;1.00;;;;;;4974503;28;20416;-80
2022/07/06 10:26:35;;;;;;;1.63;0.30;;;19.00;1.00;;;;;;4974518;28;20420;-80
2022/07/06 10:29:03;;;;;;;1.40;0.37;;;19.00;99.90;;;;;;4974188;28;20525;-80
2022/07/06 10:31:30;;;;;;;1.37;0.37;;;18.90;99.90;;;;;;4974481;28;20473;-80
2022/07/06 10:33:58;;;;;;;2.40;0.50;;;18.90;99.90;;;;;;4974355;28;20407;-79
2022/07/06 10:36:24;;;;;;;2.60;0.40;;;20.50;1.00;;;;;;4974388;28;20820;-81
2022/07/06 10:38:51;;;;;;;1.10;0.20;;;20.80;1.00;;;;;;4974386;28;20414;-80
2022/07/06 10:41:17;;;;;;;1.00;0.50;;;21.00;99.90;;;;;;4974208;28;20474;-80
2022/07/06 10:43:45;;;;;;;2.70;0.47;;;20.80;1.00;;;;;;4973990;28;20411;-81
2022/07/06 10:46:15;;;;;;;1.17;0.30;;;20.20;1.00;;;;;;4974333;28;20507;-81
2022/07/06 10:48:42;;;;;;;1.37;0.27;;;19.70;1.00;;;;;;4974273;28;20415;-80
2022/07/06 10:51:10;;;;;;;1.20;0.37;;;18.80;1.00;;;;;;4974195;28;20521;-80
2022/07/06 10:53:40;;;;;;;4.97;0.23;;;18.30;99.90;;;;;;4974196;28;20525;-80
2022/07/06 10:56:07;;;;;;;0.90;0.20;;;17.80;99.90;;;;;;4974234;28;20507;-81
2022/07/06 10:58:41;;;;;;;1.53;0.30;;;17.30;99.90;;;;;;5005190;28;20435;-80
2022/07/06 11:01:10;;;;;;;2.70;0.50;;;16.80;1.00;;;;;;4975791;28;20480;-80
2022/07/06 11:03:45;;;;;;;2.00;0.20;;;16.50;1.00;;;;;;4978140;28;20923;-80
2022/07/06 11:06:12;;;;;;;2.10;0.20;;;16.40;1.00;;;;;;4978176;28;20421;-80
2022/07/06 11:08:42;;;;;;;2.20;0.20;;;16.30;1.00;;;;;;4978030;28;20809;-79
2022/07/06 11:11:35;;;;;;;0.90;0.10;;;16.10;1.00;;;;;;4977959;28;20457;-80
2022/07/06 11:14:17;;;;;;;0.93;0.20;;;15.90;1.00;;;;;;4977622;28;20408;-79
2022/07/06 11:16:49;;;;;;;0.93;0.20;;;15.90;1.00;;;;;;4977864;28;20443;-79
2022/07/06 11:19:19;;;;;;;1.60;0.20;;;15.80;99.90;;;;;;4977843;28;20488;-80
2022/07/06 11:21:47;;;;;;;1.90;0.30;;;15.70;99.90;;;;;;4977808;28;20528;-80
2022/07/06 11:24:18;;;;;;;3.63;0.20;;;15.60;99.90;;;;;;4977799;28;20441;-80
2022/07/06 11:26:46;;;;;;;1.27;0.20;;;15.50;99.90;;;;;;4977748;28;20432;-79
2022/07/06 11:29:13;;;;;;;1.77;0.20;;;15.50;99.90;;;;;;5008961;28;20803;-79
2022/07/06 11:31:42;;;;;;;1.27;0.20;;;15.50;99.90;;;;;;4977635;28;20803;-79
2022/07/06 11:34:09;;;;;;;2.10;0.30;;;15.50;99.90;;;;;;4977522;28;20798;-79
2022/07/06 11:36:35;;;;;;;1.30;0.33;;;15.50;99.90;;;;;;4977543;28;20429;-79
2022/07/06 11:39:01;;;;;;;2.37;0.20;;;15.50;99.90;;;;;;4977512;28;20445;-79
2022/07/06 11:41:26;;;;;;;2.00;0.30;;;15.60;99.90;;;;;;4977548;28;20523;-79
2022/07/06 11:43:52;;;;;;;1.30;0.17;;;16.00;99.90;;;;;;4975991;28;20173;-79
2022/07/06 11:46:23;;;;;;;1.70;0.20;;;16.40;99.90;;;;;;4977432;28;20668;-79
2022/07/06 11:48:50;;;;;;;4.43;0.30;;;17.50;99.90;;;;;;4977264;28;20411;-79
2022/07/06 11:51:16;;;;;;;2.13;0.30;;;17.60;1.00;;;;;;4977249;28;20430;-79
2022/07/06 11:53:53;;;;;;;1.83;0.30;;;17.70;1.00;;;;;;5008612;28;20775;-79
2022/07/06 11:56:21;;;;;;;5.83;0.57;;;17.90;1.00;;;;;;4977142;28;20636;-79
2022/07/06 11:58:49;;;;;;;5.97;0.57;;;18.30;1.00;;;;;;4976790;28;20413;-80
2022/07/06 12:01:15;;;;;;;1.20;0.20;;;18.60;1.00;;;;;;4976968;28;20479;-80
2022/07/06 12:03:42;;;;;;;0.70;0.20;;;18.80;1.00;;;;;;5008407;28;20425;-81
2022/07/06 12:06:20;;;;;;;1.57;0.30;;;19.40;99.90;;;;;;4977121;28;20649;-79
2022/07/06 12:08:48;;;;;;;2.47;0.43;;;19.90;99.90;;;;;;4976811;28;20888;-79
2022/07/06 12:11:22;;;;;;;2.60;0.20;;;20.80;99.90;;;;;;4976977;28;20946;-80
2022/07/06 12:13:48;;;;;;;1.33;0.30;;;20.30;1.00;;;;;;4975655;28;20502;-80
2022/07/06 12:16:18;;;;;;;1.30;0.20;;;20.10;99.90;;;;;;4976869;28;20867;-79
2022/07/06 12:18:46;;;;;;;2.40;0.20;;;20.30;99.90;;;;;;4976833;28;20795;-80
2022/07/06 12:21:16;;;;;;;1.37;0.33;;;20.30;49.30;;;;;;4976809;28;20476;-81
2022/07/06 12:23:47;;;;;;;1.67;0.57;;;20.90;12.00;;;;;;4976703;28;20447;-80
2022/07/06 12:26:15;;;;;;;1.80;0.30;;;21.80;1.00;;;;;;4976668;28;20909;-80
2022/07/06 12:28:41;;;;;;;4.37;0.47;;;22.60;99.90;;;;;;4976279;28;20479;-81
2022/07/06 12:31:07;;;;;;;2.10;0.27;;;22.70;99.90;;;;;;4976497;28;20428;-82
2022/07/06 12:33:33;;;;;;;1.10;0.20;;;22.80;99.90;;;;;;5007889;28;20435;-81
2022/07/06 12:36:15;;;;;;;2.23;0.40;;;22.50;99.90;;;;;;4976546;28;20579;-83
2022/07/06 12:38:45;;;;;;;1.93;0.30;;;22.40;99.90;;;;;;4976455;28;20529;-82
2022/07/06 12:41:23;;;;;;;2.47;0.30;;;22.50;99.90;;;;;;4976375;28;20502;-81
2022/07/06 12:43:48;;;;;;;1.73;0.30;;;22.20;99.90;;;;;;4976151;28;20840;-87
2022/07/06 12:46:29;;;;;;;3.17;0.20;;;22.50;99.90;;;;;;4976255;28;20511;-79
2022/07/06 12:48:56;;;;;;;1.53;0.30;;;23.60;99.90;;;;;;4976351;28;20263;-79